Nevers, France

11:48 PM CEST on March 31, 2015 (GMT +0200)
Nevers, Montapins | | Change Station
CLOSE
Current Station
Personal Weather Station
Location: Nevers, BOURGOGNE
Elevation: 745 ft
Nearby Weather Stations

Elev 745 ft 46.98 °N, 3.14 °E | Updated 3 minutes ago

Clear
Clear
47.8 °F
Feels Like 46 °F
N
4.0
Wind Variable Wind from East
Gusts 9.4 mph

Today
High -- | Low -- °F
--% Chance of Precip.
Yesterday
High -- | Low -- °F
Precip. -- in
7:29 AM 8:14 PM
Waxing Gibbous, 89% visible
Pressure 30.24 in
Visibility 6.2 miles
Clouds
Windchill 46 °F
Dew Point 37 °F
Humidity 65%
Rainfall 0.04 in
Snow Depth Not available.
UV 0.0 out of 12
Pollen Not available.
Air Quality Not available.
Flu Activity Not available.
METAR LFOA 312130Z AUTO 29007KT 9999 NSC 06/01 Q1024

More Conditions Fewer Conditions

Pressure 30.24 in
Visibility 6.2 miles
Clouds
Windchill 46 °F
Dew Point 37 °F
Humidity 65%
Rainfall 0.04 in
Snow Depth Not available.
UV 0.0 out of 12
Pollen Not available.
Air Quality Not available.
Flu Activity Not available.
METAR LFOA 312130Z AUTO 29007KT 9999 NSC 06/01 Q1024

More Conditions Fewer Conditions

10-Day Weather Forecast

Almanac

Astronomy

Mar. 31, 2015 Rise Set
Actual Time
Civil Twilight
Nautical Twilight
Astronomical Twilight
Moon
Length of Visible Light
Length of Day
Tomorrow will be .
, % of the Moon is Illuminated

Today's Extremes

Country Highs Country Lows

Community

WunderPhotos

Upload Photos

1,809,844 photos uploaded!

WunderBlogs® & News

Nearby

Air Quality

  Air Quality AQ Index Pollutant
Not available.

Snow Depth

Station Depth Elevation

Earthquake Activity

City Distance Mag. Time & Date
Minimum magnitude displayed is 2.5.

Coastal Water Temperatures

Place Temperature

Stations

Nearby Weather Stations

Station Location Temp. Windchill Dew Point Humidity Wind Precip. Elev Updated Type